Flight Track Log - Related Links

Times and Time Zones

All times are in EST time to prevent confusion due to time zone crossing. See the CPT7773 flight status page for this flight to view local times or setup timezone preferences in your user account.

Time Position Orientation Groundspeed Altitude Reporting Facility
EST Latitude Longitude Course Direction KTS MPH feet Rate Location/Type
Fri 08:03:47 PM 44.4139 -108.6450 133° Southeast 175 201 11,000  Level Salt Lake Center
Fri 08:04:49 PM 44.3789 -108.5900 132° Southeast 187 215 11,000  Level Salt Lake Center
Fri 08:05:51 PM 44.3456 -108.5397 133° Southeast 185 213 11,000  Level Salt Lake Center
Fri 08:06:53 PM 44.3128 -108.4903 133° Southeast 180 207 11,000  Level Salt Lake Center
Fri 08:07:54 PM 44.2742 -108.4292 131° Southeast 177 204 11,000 49 Level Salt Lake Center
Fri 08:08:56 PM 44.2400 -108.3778 133° Southeast 178 205 11,100  Climbing Salt Lake Center
Fri 08:09:00 PM 44.3403 -108.7266 133° Southeast  Level Estimated
Fri 08:09:58 PM 44.2067 -108.3264 132° Southeast 179 206 11,000  Level Salt Lake Center
Fri 08:11:00 PM 44.1744 -108.2742 131° Southeast 179 206 11,100 48 Climbing Salt Lake Center
Fri 08:12:02 PM 44.1408 -108.2231 132° Southeast 179 206 11,100  Level Salt Lake Center
Fri 08:13:04 PM 44.1072 -108.1722 133° Southeast 179 206 11,100  Level Salt Lake Center
Fri 08:14:06 PM 44.0669 -108.1114 133° Southeast 179 206 11,100  Level Salt Lake Center
Fri 08:15:08 PM 44.0336 -108.0586 131° Southeast 180 207 11,100  Level Salt Lake Center
Fri 08:16:09 PM 43.9981 -108.0069 134° Southeast 182 209 11,100  Level Salt Lake Center
Fri 08:17:11 PM 43.9636 -107.9556 133° Southeast 183 211 11,100  Level Salt Lake Center
Fri 08:18:13 PM 43.9331 -107.9000 127° Southeast 182 209 11,100  Level Salt Lake Center
Fri 08:19:15 PM 43.9053 -107.8411 123° Southeast 181 208 11,100  Level Salt Lake Center
Fri 08:20:17 PM 43.8717 -107.7728 124° Southeast 180 207 11,100  Level Salt Lake Center
Fri 08:21:18 PM 43.8417 -107.7156 126° Southeast 181 208 11,100  Level Salt Lake Center
Fri 08:22:20 PM 43.8119 -107.6594 126° Southeast 182 209 11,100  Level Salt Lake Center
Fri 08:23:22 PM 43.7819 -107.6022 126° Southeast 183 211 11,100  Level Salt Lake Center
Fri 08:24:24 PM 43.7525 -107.5442 125° Southeast 184 212 11,100  Level Salt Lake Center
Fri 08:25:26 PM 43.7233 -107.4867 125° Southeast 184 212 11,100  Level Salt Lake Center
Fri 08:26:27 PM 43.6947 -107.4300 125° Southeast 182 209 11,100  Level Salt Lake Center
Fri 08:27:29 PM 43.6597 -107.3636 126° Southeast 180 207 11,100  Level Salt Lake Center
Fri 08:28:31 PM 43.6300 -107.3064 126° Southeast 182 209 11,100  Level Salt Lake Center
Fri 08:29:33 PM 43.6006 -107.2497 126° Southeast 182 209 11,100  Level Salt Lake Center
Fri 08:30:35 PM 43.5703 -107.1903 125° Southeast 185 213 11,100  Level Salt Lake Center
Fri 08:31:36 PM 43.5408 -107.1325 125° Southeast 185 213 11,100 -49 Level Salt Lake Center
Fri 08:32:38 PM 43.5094 -107.0739 126° Southeast 188 216 11,000  Descending Salt Lake Center
Fri 08:33:40 PM 43.4742 -107.0081 126° Southeast 182 209 11,100 48 Climbing Salt Lake Center
Fri 08:34:42 PM 43.4439 -106.9525 127° Southeast 181 208 11,100  Level Salt Lake Center
Fri 08:35:43 PM 43.4133 -106.8975 127° Southeast 182 209 11,100  Level Salt Lake Center
Fri 08:36:45 PM 43.3778 -106.8603 143° Southeast 172 198 11,100 -242 Level Salt Lake Center
Fri 08:37:47 PM 43.3256 -106.8233 153° Southeast 181 208 10,600 -435 Descending Salt Lake Center
Fri 08:38:49 PM 43.2817 -106.7894 151° Southeast 187 215 10,200 -242 Descending Salt Lake Center
Fri 08:39:51 PM 43.2358 -106.7464 146° Southeast 182 209 10,100 -406 Descending Salt Lake Center
Fri 08:42:01 PM 43.1447 -106.6647 147° Southeast 188 216 8,900 -563 Descending Denver Center
Fri 08:43:03 PM 43.0928 -106.6192 147° Southeast 194 223 8,300 -532 Descending Denver Center
Fri 08:44:05 PM 43.0472 -106.5819 149° Southeast 197 227 7,800 -537 Descending Denver Center
Fri 08:45:06 PM 42.9972 -106.5339 145° Southeast 198 228 7,200 -488 Descending Denver Center
Fri 08:46:08 PM 42.9575 -106.4911 142° Southeast 195 224 6,800 -581 Descending Denver Center
Fri 08:47:10 PM 42.9297 -106.4506 133° Southeast 173 199 6,000 -488 Descending Denver Center
Fri 08:48:11 PM 42.8978 -106.4197 145° Southeast 165 190 5,800 -197 Descending Denver Center

Login

Don't have an account? Register now (free) for customized features, flight alerts, and more!